Absaraka, North Dakota
Current Conditions -  °F | °C
As of 1:55 AM on Monday 24 Nov 2014 (Local Time) from KFAR Reporting Station
Light Snow Light Snow  
Wind Chill: -1°   Ceiling: 1700
Heat Index: 16°   Visibility: 1.7mi
Dew Point: 12°   Wind: 20mph
Humidity: 84%   Direction: 330°NNW
Pressure: 29.58"   Gusts: NA
Location:  46.98°N, 97.39°W
Report Text: KFAR 240755Z AUTO 33017KT 1 3/4SM -SN BR BKN017 OVC030 M09/M11 A2958 RMK AO2 P0000 T10891111 TSNO
Loading
Personal Weather Stations






























Interactive Weather Map New forecast layout! Learn more

10-Day Weather Forecast

Advertisements
Track Severe Weather on mobile